createdAt,value
2018-10-18T00:02:28.132Z,60.67
2018-10-18T00:04:56.496Z,60.13
2018-10-18T00:07:24.916Z,67.13
2018-10-18T00:09:53.410Z,63.23
2018-10-18T00:12:21.863Z,62.40
2018-10-18T00:14:50.336Z,61.93
2018-10-18T00:17:23.972Z,61.13
2018-10-18T00:19:52.477Z,63.17
2018-10-18T00:22:20.864Z,63.43
2018-10-18T00:24:49.598Z,60.10
2018-10-18T00:27:18.274Z,57.83
2018-10-18T00:29:46.680Z,62.37
2018-10-18T00:32:15.123Z,63.23
2018-10-18T00:34:43.516Z,60.97
2018-10-18T00:37:12.058Z,59.60
2018-10-18T00:39:40.472Z,60.67
2018-10-18T00:42:08.881Z,61.83
2018-10-18T00:44:37.299Z,64.00
2018-10-18T00:47:05.775Z,65.17
2018-10-18T00:49:34.226Z,58.03
2018-10-18T00:52:02.653Z,63.10
2018-10-18T00:54:31.056Z,61.60
2018-10-18T00:56:59.435Z,70.43
2018-10-18T00:59:27.865Z,69.37
2018-10-18T01:01:56.311Z,63.33
2018-10-18T01:04:24.710Z,64.73
2018-10-18T01:06:53.345Z,68.47
2018-10-18T01:09:21.707Z,67.27
2018-10-18T01:11:50.094Z,68.87
2018-10-18T01:14:18.574Z,57.97
2018-10-18T01:16:50.200Z,55.80
2018-10-18T01:19:18.672Z,55.00
2018-10-18T01:21:47.101Z,61.40
2018-10-18T01:24:15.628Z,56.90
2018-10-18T01:26:45.253Z,50.90
2018-10-18T01:29:13.646Z,52.33
2018-10-18T01:31:42.056Z,53.60
2018-10-18T01:34:10.475Z,53.07
2018-10-18T01:36:38.891Z,53.47
2018-10-18T01:39:07.632Z,53.93
2018-10-18T01:41:36.023Z,50.40
2018-10-18T01:44:04.665Z,54.03
2018-10-18T01:46:33.070Z,60.80
2018-10-18T01:49:01.474Z,62.90
2018-10-18T01:51:29.918Z,62.73
2018-10-18T01:53:58.394Z,59.50
2018-10-18T01:56:26.955Z,59.53
2018-10-18T01:58:55.355Z,61.87
2018-10-18T02:01:23.831Z,60.57
2018-10-18T02:03:52.329Z,59.60
2018-10-18T02:06:20.693Z,56.17
2018-10-18T02:08:49.048Z,57.30
2018-10-18T02:11:17.508Z,62.47
2018-10-18T02:13:46.784Z,60.93
2018-10-18T02:16:15.115Z,58.27
2018-10-18T02:18:43.543Z,60.97
2018-10-18T02:21:11.971Z,63.87
2018-10-18T02:23:40.599Z,63.97
2018-10-18T02:26:09.056Z,64.20
2018-10-18T02:28:37.512Z,64.20
2018-10-18T02:31:06.213Z,61.83
2018-10-18T02:33:34.686Z,60.67
2018-10-18T02:36:03.364Z,62.03
2018-10-18T02:38:31.688Z,62.57
2018-10-18T02:41:00.141Z,96.67
2018-10-18T02:43:28.811Z,59.80
2018-10-18T02:45:57.200Z,61.67
2018-10-18T02:48:25.632Z,62.83
2018-10-18T02:50:54.008Z,62.77
2018-10-18T02:53:22.460Z,64.30
2018-10-18T02:55:50.931Z,66.80
2018-10-18T02:58:19.713Z,61.90
2018-10-18T03:00:48.138Z,60.07
2018-10-18T03:03:16.540Z,51.70
2018-10-18T03:05:44.951Z,54.77
2018-10-18T03:08:13.655Z,55.47
2018-10-18T03:10:42.019Z,55.37
2018-10-18T03:13:10.414Z,56.67
2018-10-18T03:15:38.898Z,58.00
2018-10-18T03:18:08.006Z,55.17
2018-10-18T03:20:36.404Z,57.07
2018-10-18T03:23:05.180Z,53.37
2018-10-18T03:25:33.867Z,55.57
2018-10-18T03:28:02.301Z,54.13
2018-10-18T03:30:30.691Z,53.37
2018-10-18T03:32:59.103Z,51.33
2018-10-18T03:35:27.507Z,52.07
2018-10-18T03:37:55.940Z,51.63
2018-10-18T03:40:24.323Z,47.63
2018-10-18T03:42:52.760Z,50.90
2018-10-18T03:45:21.163Z,51.43
2018-10-18T03:47:49.585Z,51.47
2018-10-18T03:50:18.040Z,52.50
2018-10-18T03:52:46.442Z,52.40
2018-10-18T03:55:14.857Z,53.13
2018-10-18T03:57:43.280Z,53.40
2018-10-18T04:00:11.808Z,53.83
2018-10-18T04:02:40.162Z,53.93
2018-10-18T04:05:09.532Z,54.43
2018-10-18T04:07:37.932Z,53.30
2018-10-18T04:10:06.710Z,51.67
2018-10-18T04:12:35.138Z,52.23
2018-10-18T04:15:03.576Z,51.93
2018-10-18T04:17:31.954Z,52.57
2018-10-18T04:20:00.335Z,51.50
2018-10-18T04:22:28.898Z,51.13
2018-10-18T04:24:57.280Z,48.17
2018-10-18T04:27:25.681Z,49.23
2018-10-18T04:29:54.170Z,47.73
2018-10-18T04:32:22.622Z,46.67
2018-10-18T04:34:51.103Z,44.00
2018-10-18T04:37:19.581Z,46.77
2018-10-18T04:39:47.904Z,48.33
2018-10-18T04:42:16.394Z,45.83
2018-10-18T04:44:44.799Z,47.30
2018-10-18T04:47:13.285Z,45.40
2018-10-18T04:49:41.672Z,47.83
2018-10-18T04:52:10.076Z,49.27
2018-10-18T04:54:38.467Z,52.43
2018-10-18T04:57:07.150Z,53.63
2018-10-18T04:59:35.648Z,53.47
2018-10-18T05:02:04.341Z,52.93
2018-10-18T05:04:32.744Z,51.80
2018-10-18T05:07:02.002Z,48.70
2018-10-18T05:09:30.408Z,50.47
2018-10-18T05:11:58.804Z,48.73
2018-10-18T05:14:27.299Z,47.60
2018-10-18T05:16:55.712Z,47.57
2018-10-18T05:19:24.130Z,50.00
2018-10-18T05:21:52.500Z,49.17
2018-10-18T05:24:20.884Z,50.57
2018-10-18T05:26:49.661Z,50.83
2018-10-18T05:29:18.055Z,46.40
2018-10-18T05:31:46.956Z,49.27
2018-10-18T05:34:15.324Z,51.97
2018-10-18T05:36:43.776Z,51.70
2018-10-18T05:39:13.243Z,52.27
2018-10-18T05:41:41.867Z,54.67
2018-10-18T05:44:10.639Z,50.93
2018-10-18T05:46:39.169Z,52.10
2018-10-18T05:49:07.572Z,50.83
2018-10-18T05:51:35.957Z,53.20
2018-10-18T05:54:04.373Z,47.27
2018-10-18T05:56:32.787Z,49.77
2018-10-18T05:59:01.243Z,44.03
2018-10-18T06:01:29.695Z,47.60
2018-10-18T06:03:58.177Z,46.63
2018-10-18T06:06:26.651Z,45.50
2018-10-18T06:08:55.125Z,43.87
2018-10-18T06:11:27.471Z,45.73
2018-10-18T06:13:55.975Z,45.83
2018-10-18T06:16:25.591Z,47.53
2018-10-18T06:18:54.198Z,45.03
2018-10-18T06:21:23.394Z,43.23
2018-10-18T06:23:51.884Z,49.83
2018-10-18T06:26:20.656Z,51.10
2018-10-18T06:28:49.860Z,52.97
2018-10-18T06:31:18.436Z,47.17
2018-10-18T06:33:47.104Z,44.33
2018-10-18T06:36:15.546Z,44.43
2018-10-18T06:38:43.964Z,45.37
2018-10-18T06:41:12.455Z,45.17
2018-10-18T06:43:41.684Z,45.30
2018-10-18T06:46:11.868Z,44.10
2018-10-18T06:48:40.870Z,46.60
2018-10-18T06:51:09.662Z,41.50
2018-10-18T06:53:38.465Z,42.13
2018-10-18T06:56:07.084Z,39.30
2018-10-18T06:58:35.510Z,42.10
2018-10-18T07:01:04.186Z,39.60
2018-10-18T07:03:32.606Z,41.67
2018-10-18T07:06:01.106Z,38.93
2018-10-18T07:08:29.764Z,36.97
2018-10-18T07:10:58.357Z,37.17
2018-10-18T07:13:26.622Z,36.57
2018-10-18T07:15:55.069Z,37.90
2018-10-18T07:18:23.465Z,39.90
2018-10-18T07:20:52.444Z,36.93
2018-10-18T07:23:20.835Z,41.03
2018-10-18T07:25:49.300Z,40.27
2018-10-18T07:28:18.075Z,40.73
2018-10-18T07:30:46.480Z,39.93
2018-10-18T07:33:14.876Z,39.77
2018-10-18T07:35:43.299Z,40.07
2018-10-18T07:38:11.712Z,39.80
2018-10-18T07:40:40.187Z,38.30
2018-10-18T07:43:08.617Z,39.03
2018-10-18T07:45:37.051Z,40.23
2018-10-18T07:48:05.830Z,40.93
2018-10-18T07:50:34.277Z,41.07
2018-10-18T07:53:02.744Z,41.33
2018-10-18T07:55:31.289Z,41.20
2018-10-18T07:57:59.735Z,41.60
2018-10-18T08:00:28.275Z,40.90
2018-10-18T08:02:56.932Z,44.17
2018-10-18T08:05:25.469Z,42.60
2018-10-18T08:07:54.199Z,44.00
2018-10-18T08:10:22.627Z,45.07
2018-10-18T08:12:51.060Z,45.17
2018-10-18T08:15:19.489Z,46.37
2018-10-18T08:17:48.114Z,45.97
2018-10-18T08:20:16.527Z,47.60
2018-10-18T08:22:45.020Z,46.40
2018-10-18T08:25:13.508Z,45.33
2018-10-18T08:27:41.962Z,47.00
2018-10-18T08:30:11.902Z,43.50
2018-10-18T08:32:40.949Z,48.10
2018-10-18T08:35:10.364Z,47.27
2018-10-18T08:37:39.172Z,43.23
2018-10-18T08:40:08.004Z,46.43
2018-10-18T08:42:36.562Z,46.50
2018-10-18T08:45:05.928Z,46.13
2018-10-18T08:47:34.352Z,45.50
2018-10-18T08:50:02.903Z,45.57
2018-10-18T08:52:31.348Z,46.87
2018-10-18T08:54:59.849Z,45.60
2018-10-18T08:57:28.252Z,49.87
2018-10-18T08:59:56.704Z,47.50
2018-10-18T09:02:25.113Z,49.07
2018-10-18T09:04:53.616Z,48.60
2018-10-18T09:07:22.732Z,49.47
2018-10-18T09:09:51.096Z,49.80
2018-10-18T09:12:19.540Z,51.20
2018-10-18T09:14:47.954Z,53.10
2018-10-18T09:17:16.404Z,51.80
2018-10-18T09:19:44.825Z,52.30
2018-10-18T09:22:13.278Z,52.47
2018-10-18T09:24:41.811Z,50.50
2018-10-18T09:27:10.399Z,52.93
2018-10-18T09:29:39.086Z,53.77
2018-10-18T09:32:07.532Z,52.43
2018-10-18T09:34:36.014Z,51.87
2018-10-18T09:37:05.331Z,52.43
2018-10-18T09:39:33.786Z,53.70
2018-10-18T09:42:02.147Z,53.73
2018-10-18T09:44:30.695Z,55.03
2018-10-18T09:46:58.977Z,56.33
2018-10-18T09:49:27.425Z,54.20
2018-10-18T09:51:55.786Z,54.07
2018-10-18T09:54:24.295Z,54.43
2018-10-18T09:56:53.584Z,53.80
2018-10-18T09:59:21.957Z,55.10
2018-10-18T10:01:55.865Z,56.90
2018-10-18T10:04:24.455Z,56.03
2018-10-18T10:06:52.895Z,54.27
2018-10-18T10:09:21.319Z,54.03
2018-10-18T10:11:49.818Z,58.93
2018-10-18T10:14:18.169Z,56.13
2018-10-18T10:16:46.599Z,55.27
2018-10-18T10:19:15.061Z,57.27
2018-10-18T10:21:43.471Z,58.83
2018-10-18T10:24:11.888Z,57.00
2018-10-18T10:26:40.839Z,56.00
2018-10-18T10:29:09.239Z,59.37
2018-10-18T10:31:39.861Z,58.27
2018-10-18T10:34:08.327Z,57.20
2018-10-18T10:36:36.835Z,56.27
2018-10-18T10:39:07.261Z,56.67
2018-10-18T10:41:35.579Z,55.67
2018-10-18T10:44:06.252Z,56.97
2018-10-18T10:46:35.530Z,56.87
2018-10-18T10:49:04.243Z,57.77
2018-10-18T10:51:32.696Z,60.13
2018-10-18T10:54:01.078Z,55.97
2018-10-18T10:56:29.892Z,53.87
2018-10-18T10:58:58.391Z,54.77
2018-10-18T11:01:27.683Z,58.10
2018-10-18T11:03:57.541Z,58.93
2018-10-18T11:06:26.177Z,55.27
2018-10-18T11:08:54.619Z,52.97
2018-10-18T11:11:23.442Z,54.40
2018-10-18T11:13:51.886Z,51.77
2018-10-18T11:16:20.364Z,54.03
2018-10-18T11:18:48.790Z,53.30
2018-10-18T11:21:18.231Z,51.60
2018-10-18T11:23:46.625Z,51.00
2018-10-18T11:26:15.082Z,52.63
2018-10-18T11:28:43.423Z,54.93
2018-10-18T11:31:11.865Z,52.83
2018-10-18T11:33:40.335Z,52.60
2018-10-18T11:36:08.788Z,53.90
2018-10-18T11:38:38.716Z,51.33
2018-10-18T11:41:07.203Z,56.53
2018-10-18T11:43:35.811Z,57.23
2018-10-18T11:46:04.371Z,56.50
2018-10-18T11:48:32.829Z,53.93
2018-10-18T11:51:01.566Z,56.10
2018-10-18T11:53:30.037Z,51.93
2018-10-18T11:55:58.471Z,53.37
2018-10-18T11:58:27.167Z,51.90
2018-10-18T12:00:56.038Z,50.20
2018-10-18T12:03:24.535Z,49.67
2018-10-18T12:05:52.944Z,56.93
2018-10-18T12:08:21.652Z,49.40
2018-10-18T12:10:50.434Z,47.63
2018-10-18T12:13:18.869Z,46.60
2018-10-18T12:15:47.263Z,42.17
2018-10-18T12:18:16.026Z,41.40
2018-10-18T12:20:44.426Z,41.67
2018-10-18T12:23:12.900Z,37.33
2018-10-18T12:25:41.287Z,35.50
2018-10-18T12:28:16.836Z,33.67
2018-10-18T12:30:45.271Z,31.27
2018-10-18T12:33:13.686Z,29.60
2018-10-18T12:35:42.133Z,29.63
2018-10-18T12:38:10.764Z,29.10
2018-10-18T12:40:39.175Z,28.70
2018-10-18T12:43:07.579Z,28.23
2018-10-18T12:45:36.015Z,28.43
2018-10-18T12:48:04.564Z,26.47
2018-10-18T12:50:33.040Z,27.57
2018-10-18T12:53:01.428Z,27.43
2018-10-18T12:55:29.883Z,27.17
2018-10-18T12:57:58.284Z,25.27
2018-10-18T13:00:26.741Z,27.07
2018-10-18T13:02:55.162Z,26.97
2018-10-18T13:05:23.582Z,26.93
2018-10-18T13:07:52.293Z,26.40
2018-10-18T13:10:20.706Z,27.17
2018-10-18T13:12:49.174Z,27.63
2018-10-18T13:15:17.616Z,25.30
2018-10-18T13:17:46.054Z,26.07
2018-10-18T13:20:14.663Z,27.93
2018-10-18T13:22:42.952Z,26.30
2018-10-18T13:25:12.053Z,26.73
2018-10-18T13:27:40.495Z,24.23
2018-10-18T13:30:10.170Z,26.37
2018-10-18T13:32:38.929Z,25.67
2018-10-18T13:35:07.920Z,26.77
2018-10-18T13:37:36.380Z,27.93
2018-10-18T13:40:06.249Z,26.90
2018-10-18T13:42:34.612Z,27.23
2018-10-18T13:45:03.363Z,27.57
2018-10-18T13:47:31.759Z,25.77
2018-10-18T13:50:00.183Z,27.87
2018-10-18T13:52:28.663Z,27.10
2018-10-18T13:54:57.075Z,28.40
2018-10-18T13:57:25.533Z,28.47
2018-10-18T14:00:05.327Z,28.60
2018-10-18T14:02:33.762Z,27.97
2018-10-18T14:05:02.212Z,26.90
2018-10-18T14:07:30.696Z,28.27
2018-10-18T14:09:59.111Z,27.67
2018-10-18T14:12:27.516Z,28.07
2018-10-18T14:14:55.953Z,29.77
2018-10-18T14:17:24.593Z,30.10
2018-10-18T14:19:52.881Z,29.50
2018-10-18T14:22:21.291Z,29.07
2018-10-18T14:24:49.727Z,27.90
2018-10-18T14:27:18.404Z,29.97
2018-10-18T14:29:46.833Z,29.77
2018-10-18T14:32:15.320Z,29.20
2018-10-18T14:34:43.660Z,30.60
2018-10-18T14:37:12.170Z,30.27
2018-10-18T14:39:40.551Z,31.23
2018-10-18T14:42:08.988Z,30.83
2018-10-18T14:44:37.933Z,29.67
2018-10-18T14:47:06.608Z,30.13
2018-10-18T14:49:34.994Z,30.77
2018-10-18T14:52:03.583Z,31.53
2018-10-18T14:54:31.988Z,30.23
2018-10-18T14:57:00.384Z,31.90
2018-10-18T14:59:28.876Z,30.87
2018-10-18T15:01:57.460Z,29.03
2018-10-18T15:04:25.836Z,31.07
2018-10-18T15:06:54.261Z,29.10
2018-10-18T15:09:22.695Z,28.50
2018-10-18T15:11:51.151Z,30.10
2018-10-18T15:14:19.768Z,29.53
2018-10-18T15:16:48.571Z,31.47
2018-10-18T15:19:17.304Z,29.43
2018-10-18T15:21:45.718Z,28.40
2018-10-18T15:24:14.134Z,28.63
2018-10-18T15:26:42.810Z,29.10
2018-10-18T15:29:11.137Z,30.27
2018-10-18T15:31:39.634Z,29.70
2018-10-18T15:34:08.053Z,28.10
2018-10-18T15:36:36.480Z,29.47
2018-10-18T15:39:07.445Z,29.73
2018-10-18T15:41:36.261Z,43.03
2018-10-18T15:44:04.980Z,29.57
2018-10-18T15:46:33.436Z,27.20
2018-10-18T15:49:01.902Z,29.80
2018-10-18T15:51:30.435Z,29.27
2018-10-18T15:53:58.968Z,29.73
2018-10-18T15:56:27.391Z,27.60
2018-10-18T15:58:55.872Z,27.63
2018-10-18T16:01:24.251Z,27.97
2018-10-18T16:03:52.664Z,27.93
2018-10-18T16:06:21.315Z,28.40
2018-10-18T16:08:49.744Z,28.13
2018-10-18T16:11:18.296Z,26.67
2018-10-18T16:13:46.626Z,26.20
2018-10-18T16:16:15.407Z,27.80
2018-10-18T16:18:43.876Z,25.97
2018-10-18T16:21:12.359Z,27.93
2018-10-18T16:23:40.833Z,26.00
2018-10-18T16:26:09.361Z,27.30
2018-10-18T16:28:37.911Z,26.03
2018-10-18T16:31:06.341Z,24.93
2018-10-18T16:33:34.838Z,27.03
2018-10-18T16:36:03.336Z,25.87
2018-10-18T16:38:31.787Z,26.70
2018-10-18T16:41:00.316Z,25.60
2018-10-18T16:43:28.800Z,25.60
2018-10-18T16:45:57.266Z,26.77
2018-10-18T16:48:25.864Z,25.47
2018-10-18T16:50:54.323Z,24.77
2018-10-18T16:53:22.815Z,24.90
2018-10-18T16:55:51.332Z,24.93
2018-10-18T16:58:20.051Z,25.83
2018-10-18T17:00:48.467Z,24.63
2018-10-18T17:03:16.885Z,25.73
2018-10-18T17:05:45.364Z,25.50
2018-10-18T17:08:13.921Z,25.17
2018-10-18T17:10:42.438Z,25.67
2018-10-18T17:13:10.855Z,24.10
2018-10-18T17:15:39.316Z,22.37
2018-10-18T17:18:08.038Z,25.83
2018-10-18T17:20:36.708Z,24.03
2018-10-18T17:23:06.502Z,24.40
2018-10-18T17:25:34.968Z,24.10
2018-10-18T17:28:03.511Z,24.00
2018-10-18T17:30:32.052Z,23.87
2018-10-18T17:33:00.475Z,23.50
2018-10-18T17:35:29.007Z,24.13
2018-10-18T17:37:57.485Z,23.37
2018-10-18T17:40:25.890Z,26.00
2018-10-18T17:42:54.407Z,24.53
2018-10-18T17:45:23.456Z,24.70
2018-10-18T17:47:52.183Z,25.27
2018-10-18T17:50:20.920Z,24.90
2018-10-18T17:52:49.287Z,23.73
2018-10-18T17:55:17.763Z,26.03
2018-10-18T17:57:46.192Z,24.20
2018-10-18T18:00:14.756Z,24.60
2018-10-18T18:02:43.172Z,24.13
2018-10-18T18:05:12.609Z,22.90
2018-10-18T18:07:41.067Z,23.40
2018-10-18T18:10:12.694Z,24.13
2018-10-18T18:12:41.387Z,24.50
2018-10-18T18:15:10.426Z,24.13
2018-10-18T18:17:39.291Z,23.70
2018-10-18T18:20:08.880Z,23.13
2018-10-18T18:22:37.440Z,23.13
2018-10-18T18:25:07.495Z,24.10
2018-10-18T18:27:35.987Z,23.27
2018-10-18T18:30:06.168Z,22.97
2018-10-18T18:32:34.620Z,22.10
2018-10-18T18:35:03.072Z,22.37
2018-10-18T18:37:31.538Z,22.00
2018-10-18T18:40:00.072Z,21.30
2018-10-18T18:42:28.603Z,20.70
2018-10-18T18:45:02.529Z,20.23
2018-10-18T18:47:30.968Z,20.70
2018-10-18T18:49:59.365Z,20.50
2018-10-18T18:52:27.802Z,21.90
2018-10-18T18:54:56.263Z,19.90
2018-10-18T18:57:24.921Z,20.03
2018-10-18T18:59:53.368Z,19.30
2018-10-18T19:02:21.817Z,20.43
2018-10-18T19:04:50.277Z,18.47
2018-10-18T19:07:18.708Z,17.80
2018-10-18T19:09:47.137Z,18.33
2018-10-18T19:12:16.159Z,18.70
2018-10-18T19:14:44.544Z,16.70
2018-10-18T19:17:13.014Z,18.03
2018-10-18T19:19:41.437Z,18.07
2018-10-18T19:22:09.921Z,18.63
2018-10-18T19:24:38.384Z,19.63
2018-10-18T19:27:06.896Z,17.33
2018-10-18T19:29:35.326Z,16.20
2018-10-18T19:32:03.825Z,16.77
2018-10-18T19:34:32.206Z,17.13
2018-10-18T19:37:00.662Z,16.63
2018-10-18T19:39:29.082Z,15.97
2018-10-18T19:41:57.533Z,15.77
2018-10-18T19:44:25.982Z,16.53
2018-10-18T19:46:54.433Z,15.73
2018-10-18T19:49:22.972Z,17.33
2018-10-18T19:51:51.432Z,14.57
2018-10-18T19:54:19.887Z,16.03
2018-10-18T19:56:48.376Z,15.80
2018-10-18T19:59:16.921Z,14.20
2018-10-18T20:01:45.337Z,14.80
2018-10-18T20:04:13.821Z,14.50
2018-10-18T20:06:42.206Z,13.00
2018-10-18T20:09:12.521Z,13.10
2018-10-18T20:11:41.225Z,13.37
2018-10-18T20:14:09.682Z,12.03
2018-10-18T20:16:38.193Z,13.13
2018-10-18T20:19:06.918Z,13.80
2018-10-18T20:21:35.411Z,12.77
2018-10-18T20:24:05.353Z,13.97
2018-10-18T20:26:33.884Z,12.77
2018-10-18T20:29:02.339Z,12.57
2018-10-18T20:31:30.773Z,13.80
2018-10-18T20:33:59.229Z,12.70
2018-10-18T20:36:27.783Z,13.23
2018-10-18T20:38:56.228Z,13.47
2018-10-18T20:41:24.688Z,13.27
2018-10-18T20:43:53.121Z,13.23
2018-10-18T20:46:21.508Z,13.37
2018-10-18T20:48:49.961Z,13.07
2018-10-18T20:51:18.363Z,12.60
2018-10-18T20:53:47.204Z,12.47
2018-10-18T20:56:15.624Z,13.00
2018-10-18T20:58:44.136Z,12.33
2018-10-18T21:01:12.579Z,12.40
2018-10-18T21:03:41.025Z,12.47
2018-10-18T21:06:09.520Z,12.40
2018-10-18T21:08:37.888Z,12.20
2018-10-18T21:11:06.419Z,12.13
2018-10-18T21:13:34.793Z,12.97
2018-10-18T21:16:03.217Z,13.30
2018-10-18T21:18:31.731Z,12.13
2018-10-18T21:21:00.229Z,12.73
2018-10-18T21:23:28.663Z,12.50
2018-10-18T21:25:57.104Z,13.67
2018-10-18T21:28:25.881Z,13.00
2018-10-18T21:30:54.356Z,13.80
2018-10-18T21:33:22.726Z,13.57
2018-10-18T21:35:51.180Z,14.40
2018-10-18T21:38:19.580Z,13.83
2018-10-18T21:40:48.153Z,13.43
2018-10-18T21:43:16.545Z,13.80
2018-10-18T21:45:44.962Z,14.87
2018-10-18T21:48:13.492Z,13.43
2018-10-18T21:50:41.870Z,15.20
2018-10-18T21:53:10.323Z,15.77
2018-10-18T21:55:38.705Z,15.20
2018-10-18T21:58:07.140Z,14.83
2018-10-18T22:00:41.012Z,14.93
2018-10-18T22:03:09.529Z,14.83
2018-10-18T22:05:37.873Z,14.73
2018-10-18T22:08:06.242Z,14.23
2018-10-18T22:10:34.698Z,14.77
2018-10-18T22:13:03.087Z,15.17
2018-10-18T22:15:31.533Z,14.77
2018-10-18T22:18:00.015Z,15.10
2018-10-18T22:20:28.483Z,14.87
2018-10-18T22:22:56.954Z,15.67
2018-10-18T22:25:25.431Z,15.90
2018-10-18T22:27:53.892Z,15.37
2018-10-18T22:30:22.340Z,15.07
2018-10-18T22:32:50.760Z,16.23
2018-10-18T22:35:19.152Z,15.70
2018-10-18T22:37:47.994Z,16.97
2018-10-18T22:40:16.418Z,16.27
2018-10-18T22:42:44.869Z,14.67
2018-10-18T22:45:13.359Z,16.67
2018-10-18T22:47:41.727Z,16.00
2018-10-18T22:50:10.156Z,15.73
2018-10-18T22:52:38.581Z,15.47
2018-10-18T22:55:07.033Z,14.90
2018-10-18T22:57:35.472Z,15.17
2018-10-18T23:00:04.006Z,15.53
2018-10-18T23:02:32.360Z,15.53
2018-10-18T23:05:00.767Z,14.83
2018-10-18T23:07:29.261Z,15.13
2018-10-18T23:09:57.606Z,14.13
2018-10-18T23:12:25.975Z,15.23
2018-10-18T23:14:54.358Z,14.27
2018-10-18T23:17:22.805Z,15.47
2018-10-18T23:19:51.183Z,13.20
2018-10-18T23:22:19.579Z,14.13
2018-10-18T23:24:47.956Z,14.90
2018-10-18T23:27:15.702Z,14.13
2018-10-18T23:29:43.992Z,14.20
2018-10-18T23:32:12.450Z,13.40
2018-10-18T23:34:40.820Z,14.87
2018-10-18T23:37:09.296Z,15.00
2018-10-18T23:39:37.759Z,14.20
2018-10-18T23:42:06.322Z,13.80
2018-10-18T23:44:34.746Z,14.27
2018-10-18T23:47:03.206Z,14.73
2018-10-18T23:49:31.571Z,12.93
2018-10-18T23:51:59.995Z,14.73
2018-10-18T23:54:28.396Z,14.53
2018-10-18T23:56:56.837Z,13.47
2018-10-18T23:59:25.182Z,14.47
